createdAt,value
2019-04-30T00:00:06.203Z,9.97
2019-04-30T00:02:45.387Z,9.93
2019-04-30T00:05:17.787Z,10.05
2019-04-30T00:07:50.848Z,10.03
2019-04-30T00:10:19.670Z,9.92
2019-04-30T00:12:48.761Z,10.29
2019-04-30T00:15:19.466Z,9.78
2019-04-30T00:17:53.022Z,10.36
2019-04-30T00:20:30.038Z,10.21
2019-04-30T00:22:58.918Z,10.58
2019-04-30T00:25:28.728Z,10.04
2019-04-30T00:28:00.247Z,9.85
2019-04-30T00:30:29.162Z,10.02
2019-04-30T00:32:58.256Z,10.22
2019-04-30T00:35:29.065Z,10.28
2019-04-30T00:38:00.268Z,10.38
2019-04-30T00:40:30.749Z,10.83
2019-04-30T00:43:05.307Z,10.58
2019-04-30T00:45:32.789Z,10.50
2019-04-30T00:48:01.964Z,10.69
2019-04-30T00:50:33.904Z,10.27
2019-04-30T00:53:07.257Z,10.12
2019-04-30T00:55:40.191Z,10.20
2019-04-30T00:58:10.894Z,10.02
2019-04-30T01:00:52.642Z,9.78
2019-04-30T01:03:27.384Z,10.00
2019-04-30T01:05:56.750Z,9.81
2019-04-30T01:08:29.137Z,10.13
2019-04-30T01:10:59.857Z,10.06
2019-04-30T01:13:29.197Z,9.89
2019-04-30T01:15:58.750Z,10.14
2019-04-30T01:18:32.063Z,10.13
2019-04-30T01:21:02.985Z,9.73
2019-04-30T01:23:36.371Z,10.00
2019-04-30T01:26:05.583Z,10.26
2019-04-30T01:28:34.648Z,10.45
2019-04-30T01:31:03.853Z,9.74
2019-04-30T01:33:35.735Z,9.98
2019-04-30T01:36:11.193Z,10.00
2019-04-30T01:38:40.027Z,9.99
2019-04-30T01:41:06.834Z,10.17
2019-04-30T01:43:35.993Z,10.11
2019-04-30T01:46:09.255Z,10.09
2019-04-30T01:48:39.175Z,10.19
2019-04-30T01:51:13.352Z,9.99
2019-04-30T01:53:43.837Z,10.46
2019-04-30T01:56:50.239Z,10.22
2019-04-30T01:59:23.657Z,10.33
2019-04-30T02:01:53.111Z,10.35
2019-04-30T02:04:23.972Z,9.78
2019-04-30T02:06:53.265Z,10.06
2019-04-30T02:09:22.770Z,9.68
2019-04-30T02:11:51.924Z,10.02
2019-04-30T02:14:24.738Z,10.13
2019-04-30T02:16:54.968Z,10.12
2019-04-30T02:19:24.127Z,10.56
2019-04-30T02:22:00.538Z,10.55
2019-04-30T02:24:30.263Z,10.40
2019-04-30T02:27:03.075Z,10.65
2019-04-30T02:29:32.194Z,11.04
2019-04-30T02:32:01.458Z,10.64
2019-04-30T02:34:41.141Z,10.93
2019-04-30T02:37:31.032Z,10.54
2019-04-30T02:40:05.057Z,11.31
2019-04-30T02:42:34.469Z,10.81
2019-04-30T02:45:04.271Z,10.89
2019-04-30T02:47:36.776Z,10.73
2019-04-30T02:50:15.265Z,10.50
2019-04-30T02:52:40.248Z,10.77
2019-04-30T02:55:19.462Z,3.02
2019-04-30T02:57:54.563Z,11.24
2019-04-30T03:00:32.552Z,10.82
2019-04-30T03:03:10.255Z,10.73
2019-04-30T03:05:49.722Z,10.81
2019-04-30T03:08:29.739Z,10.93
2019-04-30T03:11:00.686Z,10.97
2019-04-30T03:13:37.678Z,11.04
2019-04-30T03:16:16.340Z,11.27
2019-04-30T03:19:12.312Z,11.19
2019-04-30T03:22:00.393Z,10.95
2019-04-30T03:24:29.684Z,10.96
2019-04-30T03:26:59.507Z,10.68
2019-04-30T03:29:30.505Z,10.86
2019-04-30T03:32:02.868Z,11.15
2019-04-30T03:34:34.731Z,11.46
2019-04-30T03:37:03.884Z,11.43
2019-04-30T03:39:34.024Z,11.75
2019-04-30T03:42:03.668Z,11.70
2019-04-30T03:44:39.990Z,11.58
2019-04-30T03:47:10.903Z,11.22
2019-04-30T03:49:40.297Z,9.63
2019-04-30T03:52:13.240Z,10.85
2019-04-30T03:54:42.294Z,11.24
2019-04-30T03:57:13.115Z,11.02
2019-04-30T03:59:51.151Z,11.16
2019-04-30T04:02:40.497Z,11.33
2019-04-30T04:05:39.964Z,11.26
2019-04-30T04:08:29.516Z,11.63
2019-04-30T04:11:21.354Z,11.65
2019-04-30T04:13:59.504Z,11.74
2019-04-30T04:16:32.182Z,11.90
2019-04-30T04:19:02.761Z,11.61
2019-04-30T04:21:33.432Z,11.24
2019-04-30T04:24:04.836Z,11.44
2019-04-30T04:26:37.059Z,11.65
2019-04-30T04:29:09.449Z,11.23
2019-04-30T04:31:41.696Z,11.28
2019-04-30T04:34:12.983Z,11.30
2019-04-30T04:36:51.401Z,11.26
2019-04-30T04:39:21.894Z,11.44
2019-04-30T04:41:52.173Z,11.26
2019-04-30T04:44:24.302Z,11.84
2019-04-30T04:46:53.484Z,11.26
2019-04-30T04:49:30.293Z,11.59
2019-04-30T04:51:59.271Z,11.58
2019-04-30T04:54:31.294Z,11.53
2019-04-30T04:57:17.009Z,11.74
2019-04-30T04:59:44.553Z,12.13
2019-04-30T05:02:32.572Z,12.07
2019-04-30T05:05:02.389Z,11.82
2019-04-30T05:07:37.163Z,11.56
2019-04-30T05:10:06.434Z,11.77
2019-04-30T05:12:39.887Z,11.70
2019-04-30T05:15:09.749Z,11.92
2019-04-30T05:17:41.718Z,12.24
2019-04-30T05:20:13.475Z,11.89
2019-04-30T05:22:44.054Z,11.79
2019-04-30T05:25:20.273Z,11.76
2019-04-30T05:27:52.913Z,11.96
2019-04-30T05:30:26.704Z,11.78
2019-04-30T05:32:56.260Z,11.83
2019-04-30T05:35:25.506Z,11.80
2019-04-30T05:37:59.925Z,12.36
2019-04-30T05:40:29.145Z,11.90
2019-04-30T05:43:00.331Z,11.81
2019-04-30T05:45:39.000Z,11.85
2019-04-30T05:48:08.853Z,12.15
2019-04-30T05:50:41.541Z,12.20
2019-04-30T05:53:19.070Z,11.93
2019-04-30T05:55:51.311Z,11.96
2019-04-30T05:58:20.450Z,11.92
2019-04-30T06:00:50.031Z,11.59
2019-04-30T06:03:30.754Z,11.59
2019-04-30T06:05:58.949Z,11.87
2019-04-30T06:08:34.380Z,12.02
2019-04-30T06:11:16.661Z,11.90
2019-04-30T06:14:18.566Z,11.32
2019-04-30T06:17:05.104Z,11.48
2019-04-30T06:19:34.916Z,11.20
2019-04-30T06:22:07.496Z,11.71
2019-04-30T06:24:39.570Z,11.76
2019-04-30T06:27:11.279Z,12.07
2019-04-30T06:29:45.063Z,12.08
2019-04-30T06:32:15.501Z,12.01
2019-04-30T06:34:46.055Z,12.28
2019-04-30T06:37:15.767Z,12.17
2019-04-30T06:39:47.099Z,11.90
2019-04-30T06:42:21.380Z,11.96
2019-04-30T06:44:53.020Z,11.92
2019-04-30T06:47:32.697Z,12.35
2019-04-30T06:49:55.726Z,12.24
2019-04-30T06:52:26.947Z,12.52
2019-04-30T06:54:59.657Z,11.99
2019-04-30T06:57:29.685Z,12.54
2019-04-30T07:00:09.684Z,11.83
2019-04-30T07:02:39.363Z,12.30
2019-04-30T07:05:12.316Z,12.49
2019-04-30T07:08:08.903Z,12.07
2019-04-30T07:10:34.948Z,12.24
2019-04-30T07:13:24.225Z,12.11
2019-04-30T07:15:54.947Z,12.02
2019-04-30T07:18:29.585Z,12.00
2019-04-30T07:20:58.797Z,12.00
2019-04-30T07:23:31.586Z,11.91
2019-04-30T07:26:02.204Z,12.31
2019-04-30T07:28:46.974Z,12.69
2019-04-30T07:31:19.193Z,12.31
2019-04-30T07:33:53.022Z,12.12
2019-04-30T07:36:19.768Z,11.95
2019-04-30T07:38:54.524Z,12.19
2019-04-30T07:41:23.047Z,12.48
2019-04-30T07:43:52.543Z,12.11
2019-04-30T07:46:22.732Z,12.63
2019-04-30T07:48:54.194Z,12.42
2019-04-30T07:51:24.029Z,12.47
2019-04-30T07:53:55.035Z,12.47
2019-04-30T07:56:34.928Z,12.37
2019-04-30T07:59:02.883Z,11.89
2019-04-30T08:01:30.816Z,12.23
2019-04-30T08:04:19.328Z,12.13
2019-04-30T08:06:53.031Z,12.20
2019-04-30T08:09:23.966Z,12.34
2019-04-30T08:11:59.340Z,12.69
2019-04-30T08:14:31.072Z,12.49
2019-04-30T08:17:04.175Z,12.38
2019-04-30T08:19:33.474Z,12.35
2019-04-30T08:22:05.893Z,12.61
2019-04-30T08:24:35.090Z,11.79
2019-04-30T08:27:04.330Z,12.23
2019-04-30T08:29:36.024Z,11.69
2019-04-30T08:32:06.536Z,11.88
2019-04-30T08:34:39.237Z,10.28
2019-04-30T08:37:17.277Z,11.95
2019-04-30T08:39:43.522Z,12.43
2019-04-30T08:42:12.714Z,12.54
2019-04-30T08:44:42.605Z,12.68
2019-04-30T08:47:13.061Z,12.66
2019-04-30T08:49:43.058Z,12.44
2019-04-30T08:52:12.857Z,12.46
2019-04-30T08:54:42.005Z,11.94
2019-04-30T08:57:11.207Z,12.48
2019-04-30T08:59:40.891Z,13.13
2019-04-30T09:02:16.125Z,13.03
2019-04-30T09:04:41.132Z,13.38
2019-04-30T09:07:10.666Z,13.20
2019-04-30T09:09:40.721Z,13.36
2019-04-30T09:12:14.670Z,13.41
2019-04-30T09:14:43.929Z,13.15
2019-04-30T09:17:13.160Z,12.93
2019-04-30T09:19:49.011Z,12.67
2019-04-30T09:22:21.165Z,12.75
2019-04-30T09:24:50.358Z,13.13
2019-04-30T09:27:19.874Z,12.65
2019-04-30T09:29:49.442Z,12.69
2019-04-30T09:32:21.120Z,12.35
2019-04-30T09:34:50.322Z,12.14
2019-04-30T09:37:21.943Z,12.30
2019-04-30T09:39:51.472Z,13.13
2019-04-30T09:42:23.244Z,13.23
2019-04-30T09:44:54.296Z,12.98
2019-04-30T09:47:26.351Z,13.60
2019-04-30T09:49:59.512Z,13.45
2019-04-30T09:52:30.613Z,13.19
2019-04-30T09:55:03.432Z,12.59
2019-04-30T09:57:38.991Z,10.68
2019-04-30T10:00:09.315Z,11.41
2019-04-30T10:02:42.639Z,13.56
2019-04-30T10:05:13.049Z,13.90
2019-04-30T10:07:53.117Z,13.26
2019-04-30T10:10:28.918Z,13.87
2019-04-30T10:12:59.416Z,13.90
2019-04-30T10:16:02.901Z,12.92
2019-04-30T10:18:32.319Z,14.02
2019-04-30T10:21:02.428Z,12.89
2019-04-30T10:23:31.557Z,13.24
2019-04-30T10:26:01.142Z,13.63
2019-04-30T10:28:31.162Z,13.99
2019-04-30T10:31:00.307Z,13.89
2019-04-30T10:33:30.863Z,14.03
2019-04-30T10:36:09.448Z,13.17
2019-04-30T10:38:39.365Z,12.65
2019-04-30T10:41:10.516Z,12.77
2019-04-30T10:43:41.016Z,13.05
2019-04-30T10:46:10.235Z,13.56
2019-04-30T10:48:43.455Z,13.91
2019-04-30T10:51:12.866Z,13.71
2019-04-30T10:53:42.289Z,12.89
2019-04-30T10:56:13.239Z,13.15
2019-04-30T10:58:42.438Z,13.75
2019-04-30T11:01:29.231Z,14.35
2019-04-30T11:04:01.975Z,13.74
2019-04-30T11:06:31.957Z,14.58
2019-04-30T11:09:01.288Z,13.50
2019-04-30T11:11:49.845Z,13.22
2019-04-30T11:14:19.395Z,13.49
2019-04-30T11:16:51.771Z,13.43
2019-04-30T11:19:22.409Z,14.32
2019-04-30T11:21:51.837Z,15.01
2019-04-30T11:24:23.088Z,14.03
2019-04-30T11:26:54.223Z,14.73
2019-04-30T11:29:23.850Z,14.86
2019-04-30T11:32:03.514Z,14.57
2019-04-30T11:34:38.408Z,15.02
2019-04-30T11:37:09.966Z,15.24
2019-04-30T11:39:39.704Z,16.41
2019-04-30T11:42:10.741Z,16.39
2019-04-30T11:44:42.748Z,16.49
2019-04-30T11:47:36.150Z,16.22
2019-04-30T11:50:11.844Z,15.39
2019-04-30T11:52:42.845Z,14.99
2019-04-30T11:55:12.390Z,14.68
2019-04-30T11:57:41.514Z,15.57
2019-04-30T12:00:21.461Z,15.98
2019-04-30T12:02:52.910Z,17.05
2019-04-30T12:05:24.240Z,16.36
2019-04-30T12:08:03.161Z,17.03
2019-04-30T12:10:42.164Z,17.27
2019-04-30T12:13:29.818Z,16.30
2019-04-30T12:15:59.396Z,14.76
2019-04-30T12:18:29.711Z,15.37
2019-04-30T12:21:08.948Z,15.83
2019-04-30T12:23:38.112Z,16.06
2019-04-30T12:26:09.142Z,16.80
2019-04-30T12:28:38.229Z,16.56
2019-04-30T12:31:09.896Z,16.74
2019-04-30T12:33:39.558Z,16.16
2019-04-30T12:46:18.948Z,17.95
2019-04-30T12:48:59.466Z,17.99
2019-04-30T12:51:45.043Z,17.42
2019-04-30T12:54:12.270Z,17.63
2019-04-30T12:57:03.866Z,17.59
2019-04-30T12:59:39.323Z,16.30
2019-04-30T13:02:09.116Z,16.05
2019-04-30T13:04:39.361Z,17.35
2019-04-30T13:07:10.902Z,17.42
2019-04-30T13:09:41.507Z,17.47
2019-04-30T13:12:11.784Z,17.33
2019-04-30T13:14:51.500Z,17.55
2019-04-30T13:17:14.484Z,17.32
2019-04-30T13:19:44.893Z,16.53
2019-04-30T13:22:14.021Z,17.02
2019-04-30T13:24:43.146Z,17.27
2019-04-30T13:27:14.709Z,17.43
2019-04-30T13:30:04.072Z,17.86
2019-04-30T13:32:39.459Z,17.18
2019-04-30T13:35:19.005Z,17.53
2019-04-30T13:37:59.178Z,17.39
2019-04-30T13:40:56.652Z,15.82
2019-04-30T13:43:45.095Z,18.07
2019-04-30T13:46:18.507Z,18.28
2019-04-30T13:48:47.206Z,17.91
2019-04-30T13:51:17.576Z,17.71
2019-04-30T13:53:51.395Z,17.69
2019-04-30T13:56:20.518Z,18.02
2019-04-30T13:58:51.643Z,18.61
2019-04-30T14:01:25.465Z,17.79
2019-04-30T14:04:13.888Z,18.04
2019-04-30T14:07:14.230Z,18.49
2019-04-30T14:09:44.268Z,18.08
2019-04-30T14:12:16.841Z,18.60
2019-04-30T14:14:46.005Z,19.62
2019-04-30T14:17:15.190Z,19.12
2019-04-30T14:19:46.568Z,18.53
2019-04-30T14:22:15.867Z,17.74
2019-04-30T14:24:54.557Z,18.18
2019-04-30T14:27:24.170Z,18.65
2019-04-30T14:29:53.285Z,18.94
2019-04-30T14:32:25.108Z,18.50
2019-04-30T14:34:56.083Z,10.71
2019-04-30T14:37:27.320Z,19.24
2019-04-30T14:39:59.876Z,19.35
2019-04-30T14:42:30.693Z,19.74
2019-04-30T14:45:15.993Z,19.84
2019-04-30T14:48:05.411Z,19.44
2019-04-30T14:50:36.088Z,18.55
2019-04-30T14:53:21.360Z,18.36
2019-04-30T14:56:11.738Z,16.26
2019-04-30T14:58:58.557Z,18.43
2019-04-30T15:01:42.843Z,18.64
2019-04-30T15:04:14.936Z,18.67
2019-04-30T15:06:48.754Z,18.44
2019-04-30T15:09:20.612Z,18.31
2019-04-30T15:11:51.419Z,18.45
2019-04-30T15:14:20.541Z,18.79
2019-04-30T15:16:51.714Z,18.75
2019-04-30T15:19:22.004Z,19.34
2019-04-30T15:21:51.101Z,18.99
2019-04-30T15:24:39.346Z,19.03
2019-04-30T15:27:11.246Z,19.67
2019-04-30T15:29:44.255Z,19.67
2019-04-30T15:32:14.968Z,19.76
2019-04-30T15:34:46.165Z,19.85
2019-04-30T15:37:21.701Z,18.40
2019-04-30T15:39:52.343Z,18.47
2019-04-30T15:42:20.645Z,19.55
2019-04-30T15:44:52.285Z,19.47
2019-04-30T15:47:23.350Z,20.23
2019-04-30T15:49:52.525Z,20.15
2019-04-30T15:52:23.414Z,20.42
2019-04-30T15:54:52.456Z,20.05
2019-04-30T15:57:21.639Z,19.95
2019-04-30T15:59:52.509Z,19.87
2019-04-30T16:02:56.513Z,19.84
2019-04-30T16:05:38.270Z,19.33
2019-04-30T16:08:22.657Z,18.80
2019-04-30T16:11:11.117Z,18.75
2019-04-30T16:14:09.385Z,19.37
2019-04-30T16:16:43.722Z,18.71
2019-04-30T16:19:24.968Z,19.43
2019-04-30T16:21:56.833Z,18.79
2019-04-30T16:24:26.075Z,18.87
2019-04-30T16:27:01.303Z,19.77
2019-04-30T16:29:30.398Z,18.84
2019-04-30T16:31:59.830Z,18.86
2019-04-30T16:34:32.281Z,19.11
2019-04-30T16:37:01.425Z,18.89
2019-04-30T16:39:30.572Z,19.11
2019-04-30T16:42:00.880Z,18.63
2019-04-30T16:44:31.122Z,18.52
2019-04-30T16:47:13.754Z,18.57
2019-04-30T16:49:34.847Z,18.70
2019-04-30T16:52:05.083Z,19.19
2019-04-30T16:54:35.172Z,19.06
2019-04-30T16:57:06.716Z,19.35
2019-04-30T16:59:41.792Z,18.98
2019-04-30T17:02:14.627Z,18.87
2019-04-30T17:04:53.093Z,18.35
2019-04-30T17:07:34.013Z,18.90
2019-04-30T17:10:12.076Z,18.22
2019-04-30T17:12:51.573Z,18.99
2019-04-30T17:15:26.379Z,18.87
2019-04-30T17:17:55.597Z,18.73
2019-04-30T17:20:24.679Z,18.51
2019-04-30T17:22:54.532Z,18.73
2019-04-30T17:25:23.705Z,19.00
2019-04-30T17:27:52.777Z,18.16
2019-04-30T17:30:23.250Z,18.85
2019-04-30T17:32:52.754Z,18.78
2019-04-30T17:35:21.962Z,18.99
2019-04-30T17:37:51.026Z,18.63
2019-04-30T17:40:21.580Z,18.13
2019-04-30T17:42:53.194Z,17.61
2019-04-30T17:45:23.576Z,18.11
2019-04-30T17:47:54.918Z,18.30
2019-04-30T17:50:26.160Z,18.14
2019-04-30T17:53:00.897Z,18.36
2019-04-30T17:55:34.946Z,18.52
2019-04-30T17:58:05.965Z,18.51
2019-04-30T18:00:38.821Z,18.50
2019-04-30T18:03:08.831Z,18.29
2019-04-30T18:05:42.209Z,18.22
2019-04-30T18:08:11.498Z,18.19
2019-04-30T18:10:43.877Z,18.02
2019-04-30T18:13:13.334Z,17.87
2019-04-30T18:15:45.168Z,18.02
2019-04-30T18:18:26.626Z,17.56
2019-04-30T18:21:12.996Z,17.72
2019-04-30T18:24:08.572Z,17.52
2019-04-30T18:26:44.532Z,17.59
2019-04-30T18:29:13.626Z,17.14
2019-04-30T18:31:43.632Z,17.13
2019-04-30T18:34:13.833Z,17.08
2019-04-30T18:36:43.000Z,17.24
2019-04-30T18:39:18.811Z,17.33
2019-04-30T18:41:48.122Z,17.52
2019-04-30T18:44:19.561Z,17.45
2019-04-30T18:46:49.162Z,17.38
2019-04-30T18:49:21.829Z,16.79
2019-04-30T18:51:50.959Z,16.54
2019-04-30T18:54:21.052Z,16.69
2019-04-30T18:56:51.272Z,16.96
2019-04-30T18:59:23.217Z,16.97
2019-04-30T19:01:54.086Z,16.26
2019-04-30T19:04:23.280Z,16.23
2019-04-30T19:06:57.552Z,15.76
2019-04-30T19:09:40.169Z,15.23
2019-04-30T19:12:29.002Z,15.32
2019-04-30T19:15:18.301Z,15.01
2019-04-30T19:18:05.259Z,15.11
2019-04-30T19:20:49.702Z,14.70
2019-04-30T19:23:22.630Z,14.71
2019-04-30T19:25:52.303Z,14.94
2019-04-30T19:28:21.513Z,14.66
2019-04-30T19:30:58.864Z,14.33
2019-04-30T19:33:26.901Z,14.28
2019-04-30T19:35:55.989Z,14.11
2019-04-30T19:38:25.426Z,14.11
2019-04-30T19:40:56.543Z,13.77
2019-04-30T19:43:28.678Z,13.62
2019-04-30T19:46:00.799Z,13.50
2019-04-30T19:48:33.938Z,13.40
2019-04-30T19:51:04.413Z,13.21
2019-04-30T19:53:39.753Z,13.08
2019-04-30T19:56:10.383Z,12.91
2019-04-30T19:58:54.297Z,13.41
2019-04-30T20:01:12.601Z,4.98
2019-04-30T20:03:41.880Z,12.93
2019-04-30T20:06:12.096Z,12.74
2019-04-30T20:08:41.660Z,12.64
2019-04-30T20:11:10.795Z,12.59
2019-04-30T20:13:40.431Z,12.53
2019-04-30T20:16:09.786Z,12.38
2019-04-30T20:18:39.165Z,12.64
2019-04-30T20:21:12.292Z,12.74
2019-04-30T20:23:41.476Z,12.48
2019-04-30T20:26:11.923Z,12.27
2019-04-30T20:28:42.481Z,12.16
2019-04-30T20:31:13.253Z,12.06
2019-04-30T20:33:42.378Z,12.12
2019-04-30T20:36:11.473Z,12.25
2019-04-30T20:39:18.134Z,12.39
2019-04-30T20:41:50.942Z,12.27
2019-04-30T20:44:24.508Z,11.90
2019-04-30T20:46:53.694Z,11.93
2019-04-30T20:49:22.814Z,12.03
2019-04-30T20:51:58.992Z,12.02
2019-04-30T20:54:32.951Z,12.06
2019-04-30T20:57:02.054Z,12.11
2019-04-30T20:59:32.578Z,12.28
2019-04-30T21:02:03.168Z,12.12
2019-04-30T21:04:32.253Z,11.96
2019-04-30T21:07:01.359Z,12.12
2019-04-30T21:09:31.687Z,11.78
2019-04-30T21:12:02.588Z,11.00
2019-04-30T21:14:31.699Z,11.32
2019-04-30T21:17:06.129Z,11.24
2019-04-30T21:19:36.494Z,11.08
2019-04-30T21:22:09.590Z,11.08
2019-04-30T21:24:52.674Z,11.14
2019-04-30T21:27:21.873Z,11.10
2019-04-30T21:29:52.449Z,11.00
2019-04-30T21:32:32.117Z,11.47
2019-04-30T21:35:40.475Z,11.37
2019-04-30T21:38:19.371Z,11.60
2019-04-30T21:40:49.589Z,11.52
2019-04-30T21:43:20.601Z,11.93
2019-04-30T21:45:52.228Z,11.87
2019-04-30T21:48:21.357Z,11.65
2019-04-30T21:50:50.611Z,11.00
2019-04-30T21:53:19.734Z,10.99
2019-04-30T21:55:53.302Z,10.74
2019-04-30T21:58:22.608Z,10.67
2019-04-30T22:01:18.421Z,10.41
2019-04-30T22:03:52.020Z,10.55
2019-04-30T22:06:24.468Z,10.76
2019-04-30T22:08:58.547Z,10.90
2019-04-30T22:11:29.811Z,10.62
2019-04-30T22:14:00.653Z,10.63
2019-04-30T22:16:32.798Z,10.57
2019-04-30T22:19:01.986Z,10.48
2019-04-30T22:21:31.058Z,10.59
2019-04-30T22:24:00.161Z,10.51
2019-04-30T22:26:29.236Z,10.31
2019-04-30T22:28:59.359Z,10.30
2019-04-30T22:31:29.616Z,10.38
2019-04-30T22:33:59.270Z,10.12
2019-04-30T22:36:48.655Z,10.07
2019-04-30T22:39:29.877Z,9.83
2019-04-30T22:42:30.059Z,9.88
2019-04-30T22:45:04.084Z,10.08
2019-04-30T22:47:33.199Z,10.73
2019-04-30T22:50:02.253Z,11.43
2019-04-30T22:52:32.645Z,11.44
2019-04-30T22:55:06.412Z,11.23
2019-04-30T22:57:35.417Z,10.86
2019-04-30T23:00:11.481Z,10.91
2019-04-30T23:03:00.260Z,10.61
2019-04-30T23:05:29.408Z,10.37
2019-04-30T23:07:58.685Z,10.77
2019-04-30T23:10:31.246Z,10.68
2019-04-30T23:13:00.299Z,10.32
2019-04-30T23:15:29.481Z,10.10
2019-04-30T23:17:58.656Z,10.44
2019-04-30T23:20:29.053Z,11.18
2019-04-30T23:22:58.116Z,11.83
2019-04-30T23:25:29.807Z,11.15
2019-04-30T23:28:01.777Z,10.73
2019-04-30T23:30:30.865Z,10.57
2019-04-30T23:32:59.963Z,10.32
2019-04-30T23:35:29.914Z,10.45
2019-04-30T23:38:01.603Z,10.67
2019-04-30T23:40:41.950Z,10.19
2019-04-30T23:43:11.168Z,9.92
2019-04-30T23:45:40.203Z,1.05
2019-04-30T23:48:09.292Z,9.73
2019-04-30T23:50:40.277Z,10.36
2019-04-30T23:53:15.059Z,10.11
2019-04-30T23:55:44.534Z,9.82
2019-04-30T23:58:13.945Z,9.86
